Time;durP1;ratioP1;P1;durP2;ratioP2;P2;SDS_P1;SDS_P2;PMS_P1;PMS_P2;Temp;Humidity;BMP_temperature;BMP_pressure;BME280_temperature;BME280_humidity;BME280_pressure;Samples;Min_cycle;Max_cycle;Signal;HPM_P1;HPM_P2
2022/07/19 00:01:09;;;;;;;4.13;3.60;;;30.80;30.20;;;;;;5066485;28;45191;-76
2022/07/19 00:03:36;;;;;;;3.88;3.58;;;30.80;30.20;;;;;;5066676;28;45202;-76
2022/07/19 00:06:03;;;;;;;7.50;3.60;;;30.70;30.20;;;;;;5066874;28;45199;-76
2022/07/19 00:08:30;;;;;;;3.58;3.28;;;30.70;30.20;;;;;;5067137;28;45252;-77
2022/07/19 00:10:56;;;;;;;3.85;3.10;;;30.70;30.30;;;;;;5066399;28;45334;-77
2022/07/19 00:13:25;;;;;;;3.78;3.33;;;30.70;30.30;;;;;;5066429;28;45223;-77
2022/07/19 00:15:51;;;;;;;5.05;3.60;;;30.70;30.20;;;;;;5066370;28;45245;-77
2022/07/19 00:18:18;;;;;;;5.68;3.40;;;30.70;30.40;;;;;;5066791;28;45314;-77
2022/07/19 00:20:45;;;;;;;3.72;3.42;;;30.60;30.20;;;;;;5066362;28;47342;-77
2022/07/19 00:23:12;;;;;;;3.35;3.03;;;30.60;30.30;;;;;;5066550;28;45391;-76
2022/07/19 00:25:39;;;;;;;3.50;3.20;;;30.60;30.40;;;;;;5065821;28;45217;-77
2022/07/19 00:28:06;;;;;;;4.72;3.10;;;30.60;30.30;;;;;;5066391;28;45168;-77
2022/07/19 00:30:34;;;;;;;4.88;3.40;;;30.50;30.40;;;;;;5066070;28;46668;-76
2022/07/19 00:33:04;;;;;;;4.55;3.35;;;30.50;30.40;;;;;;5066454;28;45318;-76
2022/07/19 00:35:30;;;;;;;3.47;2.83;;;30.50;30.40;;;;;;5066173;28;45254;-76
2022/07/19 00:37:57;;;;;;;4.28;3.10;;;30.50;30.60;;;;;;5070122;28;45461;-76
2022/07/19 00:40:24;;;;;;;3.22;2.70;;;30.40;30.50;;;;;;5069531;28;45565;-76
2022/07/19 00:42:51;;;;;;;3.17;2.85;;;30.40;30.50;;;;;;5069607;28;45287;-76
2022/07/19 00:45:18;;;;;;;4.28;2.80;;;30.40;30.50;;;;;;5069910;28;45331;-76
2022/07/19 00:47:46;;;;;;;3.97;3.10;;;30.40;30.60;;;;;;5069926;28;45218;-76
2022/07/19 00:50:13;;;;;;;3.88;2.92;;;30.40;30.60;;;;;;5069506;28;45308;-76
2022/07/19 00:52:40;;;;;;;3.38;3.05;;;30.40;30.50;;;;;;5069687;28;45420;-76
2022/07/19 00:55:08;;;;;;;2.85;2.65;;;30.30;30.50;;;;;;5069567;28;45310;-75
2022/07/19 00:57:35;;;;;;;2.65;2.45;;;30.30;30.50;;;;;;5070221;28;45348;-76
2022/07/19 01:00:02;;;;;;;3.20;2.90;;;30.30;30.50;;;;;;5069215;28;45261;-76
2022/07/19 01:02:29;;;;;;;3.25;2.40;;;30.20;31.20;;;;;;5069266;28;45229;-76
2022/07/19 01:04:57;;;;;;;3.00;2.70;;;30.20;30.50;;;;;;5069595;28;45304;-76
2022/07/19 01:07:24;;;;;;;3.35;2.60;;;30.20;30.50;;;;;;5069629;28;45176;-76
2022/07/19 01:09:51;;;;;;;3.78;2.95;;;30.10;30.60;;;;;;5069149;28;46329;-76
2022/07/19 01:12:17;;;;;;;3.13;2.58;;;30.10;30.50;;;;;;5068934;28;45215;-74
2022/07/19 01:14:44;;;;;;;3.63;2.70;;;30.10;30.60;;;;;;5068460;28;45274;-76
2022/07/19 01:17:11;;;;;;;3.05;2.67;;;30.10;30.50;;;;;;5069373;28;45332;-76
2022/07/19 01:19:38;;;;;;;3.05;2.78;;;30.10;30.70;;;;;;5068887;28;45463;-76
2022/07/19 01:22:06;;;;;;;4.00;2.60;;;30.00;30.60;;;;;;5069114;28;45188;-76
2022/07/19 01:24:33;;;;;;;3.00;2.80;;;30.00;30.70;;;;;;5069274;28;45197;-76
2022/07/19 01:26:59;;;;;;;2.95;2.70;;;30.00;31.30;;;;;;5069286;28;45309;-76
2022/07/19 01:29:26;;;;;;;2.78;2.55;;;30.00;30.60;;;;;;5066243;28;46294;-76
2022/07/19 01:31:53;;;;;;;2.63;2.42;;;29.90;30.60;;;;;;5068901;28;45256;-77
2022/07/19 01:34:20;;;;;;;2.92;2.42;;;30.00;30.70;;;;;;5068855;28;45560;-76
2022/07/19 01:36:47;;;;;;;3.53;2.65;;;29.90;30.70;;;;;;5069169;28;45391;-76
2022/07/19 01:39:15;;;;;;;3.13;2.83;;;29.80;30.60;;;;;;5068651;28;47531;-77
2022/07/19 01:41:42;;;;;;;2.72;2.53;;;29.90;30.80;;;;;;5068774;28;45240;-76
2022/07/19 01:44:08;;;;;;;2.42;2.22;;;29.80;30.70;;;;;;5068998;28;45312;-76
2022/07/19 01:46:35;;;;;;;3.38;2.50;;;29.80;30.80;;;;;;5068948;28;45177;-76
2022/07/19 01:49:02;;;;;;;2.60;2.40;;;29.80;31.50;;;;;;5067600;28;47532;-76
2022/07/19 01:51:29;;;;;;;3.20;2.50;;;29.80;30.80;;;;;;5068567;28;45268;-76
2022/07/19 01:53:56;;;;;;;2.78;2.20;;;29.70;30.70;;;;;;5068684;28;45238;-76
2022/07/19 01:56:24;;;;;;;2.78;2.47;;;29.70;30.70;;;;;;5068828;28;45351;-76
2022/07/19 01:58:51;;;;;;;2.65;2.28;;;29.70;30.80;;;;;;5067921;28;45466;-77
2022/07/19 02:01:17;;;;;;;3.25;2.60;;;29.60;30.70;;;;;;5068178;28;45222;-77
2022/07/19 02:03:44;;;;;;;3.08;2.70;;;29.70;30.90;;;;;;5068551;28;45179;-76
2022/07/19 02:06:11;;;;;;;2.50;2.28;;;29.70;30.90;;;;;;5068622;28;45290;-76
2022/07/19 02:08:38;;;;;;;2.50;2.33;;;29.60;30.80;;;;;;5068244;28;46824;-76
2022/07/19 02:13:47;;;;;;;2.83;2.20;;;29.60;31.00;;;;;;5068162;28;45302;-76
2022/07/19 02:16:14;;;;;;;2.63;2.42;;;29.50;30.90;;;;;;5068475;28;45396;-77
2022/07/19 02:18:41;;;;;;;2.17;2.08;;;29.50;30.90;;;;;;5068148;28;45287;-77
2022/07/19 02:21:08;;;;;;;2.80;2.60;;;29.40;30.80;;;;;;5068061;28;45175;-76
2022/07/19 02:23:34;;;;;;;2.53;2.33;;;29.40;31.60;;;;;;5068244;28;45293;-76
2022/07/19 02:26:01;;;;;;;3.10;2.25;;;29.40;31.00;;;;;;5068413;28;45316;-76
2022/07/19 02:28:28;;;;;;;2.47;2.28;;;29.40;31.00;;;;;;5067809;28;46397;-76
2022/07/19 02:30:56;;;;;;;3.20;2.13;;;29.40;31.10;;;;;;5067922;28;45188;-76
2022/07/19 02:33:23;;;;;;;3.20;2.25;;;29.30;31.00;;;;;;5068203;28;45192;-76
2022/07/19 02:35:50;;;;;;;2.45;2.08;;;29.30;31.00;;;;;;5067714;28;45415;-76
2022/07/19 02:38:17;;;;;;;2.38;2.20;;;29.30;30.90;;;;;;5067846;28;45339;-76
2022/07/19 02:40:44;;;;;;;2.40;2.13;;;29.30;31.10;;;;;;5067692;28;45333;-76
2022/07/19 02:43:10;;;;;;;2.22;2.10;;;29.20;31.00;;;;;;5067994;28;45202;-76
2022/07/19 02:45:37;;;;;;;2.65;2.10;;;29.20;31.60;;;;;;5068169;28;45210;-76
2022/07/19 02:48:05;;;;;;;2.50;2.30;;;29.20;31.20;;;;;;5067229;28;46337;-76
2022/07/19 02:50:32;;;;;;;2.70;2.30;;;29.20;31.00;;;;;;5067004;28;45305;-76
2022/07/19 02:52:59;;;;;;;2.20;2.05;;;29.20;31.10;;;;;;5067740;28;45330;-76
2022/07/19 02:55:26;;;;;;;2.33;2.13;;;29.10;31.00;;;;;;5067930;28;45443;-76
2022/07/19 02:57:53;;;;;;;2.42;2.22;;;29.10;31.20;;;;;;5067568;28;45389;-77
2022/07/19 03:00:20;;;;;;;2.53;2.33;;;29.10;31.20;;;;;;5067311;28;45186;-76
2022/07/19 03:02:46;;;;;;;5.78;2.42;;;29.10;31.20;;;;;;5067765;28;45241;-76
2022/07/19 03:05:15;;;;;;;2.40;2.20;;;29.10;31.20;;;;;;5067758;28;45454;-76
2022/07/19 03:07:41;;;;;;;2.38;2.13;;;29.00;31.00;;;;;;5067418;28;46472;-76
2022/07/19 03:10:08;;;;;;;2.63;2.35;;;29.00;31.20;;;;;;5067328;28;45137;-76
2022/07/19 03:12:35;;;;;;;2.72;1.92;;;28.90;31.20;;;;;;5067628;28;45288;-76
2022/07/19 03:15:02;;;;;;;2.17;1.98;;;28.90;31.20;;;;;;5067510;28;45450;-77
2022/07/19 03:17:29;;;;;;;3.05;2.28;;;28.90;31.20;;;;;;5067230;28;46392;-76
2022/07/19 03:19:56;;;;;;;3.55;2.30;;;28.90;31.20;;;;;;5067432;28;45247;-76
2022/07/19 03:22:24;;;;;;;2.13;1.90;;;28.90;31.30;;;;;;5067426;28;45260;-76
2022/07/19 03:24:51;;;;;;;2.50;2.30;;;28.80;31.10;;;;;;5067665;28;45280;-76
2022/07/19 03:27:18;;;;;;;2.20;2.00;;;28.80;31.20;;;;;;5067064;28;46402;-76
2022/07/19 03:29:45;;;;;;;2.17;2.08;;;28.80;31.20;;;;;;5067197;28;45205;-76
2022/07/19 03:32:12;;;;;;;2.30;2.10;;;28.70;31.20;;;;;;5067206;28;45265;-75
2022/07/19 03:34:39;;;;;;;2.33;2.13;;;28.70;31.20;;;;;;5066315;28;45229;-76
2022/07/19 03:37:05;;;;;;;2.50;2.30;;;28.70;31.20;;;;;;5066825;28;45299;-76
2022/07/19 03:39:34;;;;;;;2.45;2.25;;;28.70;31.20;;;;;;5066846;28;45309;-76
2022/07/19 03:42:00;;;;;;;2.17;1.90;;;28.70;31.30;;;;;;5066988;28;45292;-76
2022/07/19 03:44:27;;;;;;;2.88;2.13;;;28.70;31.30;;;;;;5067188;28;45236;-76
2022/07/19 03:46:54;;;;;;;2.25;2.05;;;28.60;31.30;;;;;;5066717;28;46648;-76
2022/07/19 03:49:21;;;;;;;2.40;2.20;;;28.60;31.30;;;;;;5066864;28;45326;-76
2022/07/19 03:51:47;;;;;;;3.67;2.17;;;28.60;31.40;;;;;;5066819;28;45208;-76
2022/07/19 03:54:14;;;;;;;2.45;2.25;;;28.60;31.30;;;;;;5067038;28;45401;-76
2022/07/19 03:56:42;;;;;;;1.98;1.88;;;28.60;31.30;;;;;;5066790;28;45324;-76
2022/07/19 03:59:09;;;;;;;2.53;2.33;;;28.60;31.40;;;;;;5066746;28;45184;-76
2022/07/19 04:01:37;;;;;;;2.33;2.13;;;28.50;31.30;;;;;;5066682;28;45307;-76
2022/07/19 04:04:04;;;;;;;2.15;1.98;;;28.50;31.50;;;;;;5066957;28;45513;-75
2022/07/19 04:06:31;;;;;;;2.95;2.40;;;28.50;31.40;;;;;;5066640;28;45229;-76
2022/07/19 04:08:58;;;;;;;2.40;2.20;;;28.50;31.50;;;;;;5066662;28;45195;-76
2022/07/19 04:11:25;;;;;;;2.30;2.10;;;28.40;31.60;;;;;;5068409;28;45229;-76
2022/07/19 04:13:53;;;;;;;2.40;2.20;;;28.40;31.50;;;;;;5070298;28;45388;-76
2022/07/19 04:16:19;;;;;;;2.80;2.33;;;28.40;31.60;;;;;;5067486;28;45424;-75
2022/07/19 04:18:46;;;;;;;2.00;1.90;;;28.30;31.50;;;;;;5070041;28;45197;-74
2022/07/19 04:21:13;;;;;;;2.45;2.25;;;28.40;31.50;;;;;;5069315;28;45201;-75
2022/07/19 04:23:40;;;;;;;2.58;2.40;;;28.30;31.50;;;;;;5070246;28;45172;-75
2022/07/19 04:26:07;;;;;;;2.80;2.60;;;28.30;31.60;;;;;;5069893;28;46723;-76
2022/07/19 04:28:33;;;;;;;2.40;2.20;;;28.30;31.60;;;;;;5069721;28;45250;-76
2022/07/19 04:31:02;;;;;;;2.92;2.40;;;28.30;31.60;;;;;;5070214;28;45259;-76
2022/07/19 04:33:28;;;;;;;2.47;2.28;;;28.20;31.50;;;;;;5070139;28;45170;-75
2022/07/19 04:35:55;;;;;;;3.33;2.55;;;28.30;31.60;;;;;;5069507;28;46811;-75
2022/07/19 04:38:22;;;;;;;2.67;2.47;;;28.20;31.60;;;;;;5069679;28;45386;-75
2022/07/19 04:40:49;;;;;;;2.40;2.20;;;28.20;31.70;;;;;;5069972;28;45236;-76
2022/07/19 04:43:17;;;;;;;2.88;2.60;;;28.20;31.70;;;;;;5070034;28;45399;-75
2022/07/19 04:45:44;;;;;;;2.60;2.40;;;28.10;31.70;;;;;;5069654;28;45222;-75
2022/07/19 04:48:13;;;;;;;2.90;2.40;;;28.10;31.80;;;;;;5069683;28;45232;-75
2022/07/19 04:50:39;;;;;;;3.28;2.60;;;28.10;31.70;;;;;;5069882;28;45295;-75
2022/07/19 04:53:06;;;;;;;2.95;2.50;;;28.10;31.90;;;;;;5069973;28;45442;-75
2022/07/19 04:55:33;;;;;;;2.75;2.45;;;28.10;31.90;;;;;;5069718;28;46583;-75
2022/07/19 04:58:00;;;;;;;3.05;2.60;;;28.00;31.90;;;;;;5069528;28;45145;-76
2022/07/19 05:00:27;;;;;;;5.03;2.80;;;28.00;31.80;;;;;;5069663;28;45526;-76
2022/07/19 05:02:54;;;;;;;2.67;2.47;;;28.00;31.80;;;;;;5069670;28;45405;-75
2022/07/19 05:05:22;;;;;;;2.47;2.28;;;27.90;32.00;;;;;;5068658;28;46661;-73
2022/07/19 05:07:49;;;;;;;3.60;2.80;;;28.00;32.00;;;;;;5065997;28;45205;-75
2022/07/19 05:10:16;;;;;;;2.58;2.38;;;27.90;32.00;;;;;;5069383;28;45233;-75
2022/07/19 05:12:43;;;;;;;3.05;2.50;;;27.90;31.90;;;;;;5069474;28;45225;-75
2022/07/19 05:15:10;;;;;;;3.10;2.80;;;27.90;32.10;;;;;;5069161;28;45319;-75
2022/07/19 05:17:37;;;;;;;2.92;2.63;;;27.90;32.10;;;;;;5069163;28;45332;-75
2022/07/19 05:20:05;;;;;;;3.00;2.70;;;28.00;32.00;;;;;;5069225;28;45244;-75
2022/07/19 05:22:33;;;;;;;3.13;2.83;;;27.90;32.00;;;;;;5068067;28;45607;-75
2022/07/19 05:25:00;;;;;;;2.88;2.67;;;28.00;32.00;;;;;;5068919;28;45251;-74
2022/07/19 05:27:27;;;;;;;2.63;2.42;;;28.00;32.00;;;;;;5068956;28;45246;-75
2022/07/19 05:29:54;;;;;;;3.55;2.60;;;28.00;32.00;;;;;;5069136;28;45236;-75
2022/07/19 05:32:20;;;;;;;3.13;2.47;;;28.00;32.00;;;;;;5069213;28;45419;-75
2022/07/19 05:34:47;;;;;;;2.70;2.50;;;28.00;32.00;;;;;;5068699;28;46798;-75
2022/07/19 05:37:14;;;;;;;3.00;2.70;;;27.90;32.00;;;;;;5068655;28;45376;-76
2022/07/19 05:39:42;;;;;;;3.10;2.40;;;27.90;32.00;;;;;;5069183;28;45398;-75
2022/07/19 05:42:09;;;;;;;3.80;2.80;;;27.90;32.00;;;;;;5068993;28;45221;-76
2022/07/19 05:44:36;;;;;;;2.60;2.40;;;27.90;32.00;;;;;;5066256;28;45645;-75
2022/07/19 05:47:03;;;;;;;2.78;2.58;;;27.90;32.00;;;;;;5068847;28;45418;-75
2022/07/19 05:49:30;;;;;;;2.85;2.63;;;27.90;32.00;;;;;;5068667;28;45301;-75
2022/07/19 05:51:56;;;;;;;2.60;2.40;;;27.90;32.00;;;;;;5068305;28;45327;-75
2022/07/19 05:54:23;;;;;;;2.78;2.45;;;27.90;32.00;;;;;;5068505;28;45829;-75
2022/07/19 05:56:52;;;;;;;4.22;2.45;;;28.00;32.00;;;;;;5068576;28;45203;-75
2022/07/19 05:59:20;;;;;;;2.83;2.53;;;27.90;32.00;;;;;;5068798;28;45317;-75
2022/07/19 06:01:47;;;;;;;3.55;2.17;;;27.90;32.00;;;;;;5068592;28;45316;-75
2022/07/19 06:04:14;;;;;;;4.60;2.70;;;27.90;32.00;;;;;;5068252;28;46647;-75
2022/07/19 06:06:41;;;;;;;3.13;2.33;;;27.90;32.00;;;;;;5068333;28;45162;-76
2022/07/19 06:09:11;;;;;;;2.40;2.20;;;27.90;32.00;;;;;;5068490;28;45134;-75
2022/07/19 06:11:38;;;;;;;3.42;2.42;;;27.90;32.00;;;;;;5067732;28;45393;-75
2022/07/19 06:14:08;;;;;;;2.67;2.28;;;27.90;32.00;;;;;;5067408;28;45530;-75
2022/07/19 06:16:35;;;;;;;3.20;2.90;;;27.90;32.10;;;;;;5068198;28;45236;-75
2022/07/19 06:19:02;;;;;;;3.13;2.30;;;27.90;32.10;;;;;;5068439;28;45302;-75
2022/07/19 06:21:29;;;;;;;2.95;2.20;;;27.90;32.10;;;;;;5065652;28;45171;-76
2022/07/19 06:23:56;;;;;;;2.63;2.42;;;27.90;32.10;;;;;;5068083;27;45300;-76
2022/07/19 06:26:22;;;;;;;2.60;2.40;;;27.90;32.10;;;;;;5067455;28;45221;-75
2022/07/19 06:28:49;;;;;;;2.55;2.15;;;27.90;32.10;;;;;;5068231;28;45350;-76
2022/07/19 06:31:17;;;;;;;2.53;2.33;;;27.90;32.10;;;;;;5068181;28;45516;-75
2022/07/19 06:33:45;;;;;;;2.50;2.30;;;27.90;32.20;;;;;;5064637;28;45578;-76
2022/07/19 06:36:12;;;;;;;2.63;2.42;;;28.00;32.20;;;;;;5067683;28;45345;-75
2022/07/19 06:38:39;;;;;;;2.30;2.10;;;27.90;32.10;;;;;;5068097;28;45240;-76
2022/07/19 06:41:06;;;;;;;2.28;2.08;;;27.90;32.10;;;;;;5068168;28;45283;-76
2022/07/19 06:43:33;;;;;;;2.58;2.15;;;28.00;32.20;;;;;;5065471;28;45268;-76
2022/07/19 06:45:59;;;;;;;3.50;2.47;;;28.00;32.20;;;;;;5067691;28;45209;-76
2022/07/19 06:48:28;;;;;;;4.00;2.47;;;28.00;32.20;;;;;;5068306;28;45257;-75
2022/07/19 06:50:54;;;;;;;2.35;2.15;;;28.00;32.20;;;;;;5067893;28;45410;-76
2022/07/19 06:53:21;;;;;;;2.65;2.45;;;28.00;32.20;;;;;;5067667;28;46817;-75
2022/07/19 06:55:48;;;;;;;3.17;2.30;;;28.00;32.30;;;;;;5067708;28;45354;-76
2022/07/19 06:58:15;;;;;;;3.08;2.10;;;28.00;32.30;;;;;;5067780;28;45239;-75
2022/07/19 07:00:42;;;;;;;2.80;2.10;;;28.00;32.30;;;;;;5067898;28;45447;-76
2022/07/19 07:03:08;;;;;;;2.60;2.40;;;28.10;32.30;;;;;;5068022;28;46282;-75
2022/07/19 07:05:37;;;;;;;2.20;2.00;;;28.10;32.40;;;;;;5067473;28;45301;-76
2022/07/19 07:08:04;;;;;;;2.92;2.50;;;28.10;32.40;;;;;;5067545;28;45220;-76
2022/07/19 07:10:31;;;;;;;2.70;2.20;;;28.10;32.30;;;;;;5067321;28;45399;-75
2022/07/19 07:12:57;;;;;;;2.28;2.10;;;28.10;32.30;;;;;;5066891;28;45184;-75
2022/07/19 07:15:24;;;;;;;2.20;2.05;;;28.10;32.30;;;;;;5067239;28;45291;-76
2022/07/19 07:17:51;;;;;;;2.53;2.33;;;28.10;32.40;;;;;;5067739;28;45351;-76
2022/07/19 07:20:18;;;;;;;2.40;2.20;;;28.20;32.40;;;;;;5067578;28;45269;-76
2022/07/19 07:22:46;;;;;;;2.58;2.30;;;28.20;32.40;;;;;;5067215;28;46306;-76
2022/07/19 07:25:13;;;;;;;2.90;2.38;;;28.20;32.50;;;;;;5067204;28;45286;-76
2022/07/19 07:27:40;;;;;;;2.55;2.35;;;28.20;32.40;;;;;;5067282;28;45174;-76
2022/07/19 07:30:08;;;;;;;2.72;2.20;;;28.20;32.40;;;;;;5067322;28;45310;-76
2022/07/19 07:32:35;;;;;;;2.35;2.15;;;28.30;32.50;;;;;;5067349;28;47415;-76
2022/07/19 07:35:01;;;;;;;3.75;2.30;;;28.30;32.40;;;;;;5066732;28;45156;-76
2022/07/19 07:37:28;;;;;;;2.40;2.20;;;28.30;32.40;;;;;;5067325;28;45248;-76
2022/07/19 07:39:56;;;;;;;3.40;2.33;;;28.30;32.40;;;;;;5067276;28;45481;-76
2022/07/19 07:42:24;;;;;;;2.60;2.10;;;28.30;32.40;;;;;;5066850;28;46581;-75
2022/07/19 07:44:51;;;;;;;2.75;2.53;;;28.30;32.30;;;;;;5066714;28;45155;-76
2022/07/19 07:47:18;;;;;;;2.90;2.40;;;28.40;32.40;;;;;;5066616;28;45167;-76
2022/07/19 07:49:45;;;;;;;2.83;2.58;;;28.40;32.40;;;;;;5067285;28;45544;-76
2022/07/19 07:52:12;;;;;;;3.78;2.60;;;28.40;32.40;;;;;;5066734;28;46747;-75
2022/07/19 07:54:39;;;;;;;4.07;2.60;;;28.40;32.40;;;;;;5063966;28;45303;-75
2022/07/19 07:57:08;;;;;;;4.00;2.63;;;28.40;32.40;;;;;;5066022;28;45196;-75
2022/07/19 07:59:35;;;;;;;2.92;2.40;;;28.40;34.60;;;;;;5066721;28;45403;-74
2022/07/19 08:02:01;;;;;;;5.07;3.05;;;28.40;35.80;;;;;;5066522;28;45382;-74
2022/07/19 08:04:28;;;;;;;4.18;2.67;;;28.40;36.00;;;;;;5066860;28;45340;-74
2022/07/19 08:06:55;;;;;;;6.35;2.70;;;28.40;36.20;;;;;;5066810;28;45197;-74
2022/07/19 08:09:22;;;;;;;2.90;2.55;;;28.40;35.80;;;;;;5066775;28;45392;-75
2022/07/19 08:11:49;;;;;;;3.45;3.10;;;28.40;36.20;;;;;;5066498;28;47900;-74
2022/07/19 08:14:17;;;;;;;3.88;2.50;;;28.50;36.50;;;;;;5066075;28;45240;-74
2022/07/19 08:16:44;;;;;;;3.55;2.67;;;28.40;37.30;;;;;;5065931;28;45277;-74
2022/07/19 08:19:11;;;;;;;5.47;2.60;;;28.50;37.30;;;;;;5066418;28;45276;-74
2022/07/19 08:21:38;;;;;;;2.67;2.30;;;28.50;37.30;;;;;;5066054;28;47675;-74
2022/07/19 08:24:05;;;;;;;4.80;2.65;;;28.50;37.00;;;;;;5065722;28;45336;-74
2022/07/19 08:26:32;;;;;;;2.60;2.40;;;28.60;36.80;;;;;;5066102;28;45380;-74
2022/07/19 08:28:59;;;;;;;6.00;2.58;;;28.60;36.60;;;;;;5066187;28;45316;-75
2022/07/19 08:31:27;;;;;;;5.00;2.60;;;28.70;36.40;;;;;;5065792;28;46636;-74
2022/07/19 08:33:54;;;;;;;3.38;2.65;;;28.70;36.80;;;;;;5062932;28;45373;-75
2022/07/19 08:36:21;;;;;;;3.10;2.40;;;28.80;36.30;;;;;;5066027;27;45245;-75
2022/07/19 08:38:47;;;;;;;3.67;2.50;;;28.80;36.40;;;;;;5066524;28;45330;-75
2022/07/19 08:41:14;;;;;;;3.00;2.63;;;28.90;36.00;;;;;;5065362;27;46172;-75
2022/07/19 08:43:41;;;;;;;3.15;2.45;;;28.80;36.20;;;;;;5065792;28;45334;-74
2022/07/19 08:46:08;;;;;;;3.90;2.58;;;28.90;36.50;;;;;;5065548;28;45190;-74
2022/07/19 08:48:39;;;;;;;6.22;2.80;;;28.90;36.30;;;;;;5066143;28;45321;-74
2022/07/19 08:51:06;;;;;;;4.35;2.53;;;29.00;36.20;;;;;;5065518;28;46474;-75
2022/07/19 08:53:35;;;;;;;2.58;2.30;;;29.10;36.20;;;;;;5065274;28;45223;-75
2022/07/19 08:57:56;;;;;;;3.92;2.42;;;29.10;36.30;;;;;;5065481;28;45258;-74
2022/07/19 08:58:48;;;;;;;3.22;2.50;;;29.10;36.20;;;;;;5068574;28;45469;-74
2022/07/19 09:01:15;;;;;;;3.03;2.70;;;29.20;36.10;;;;;;5066054;28;45283;-74
2022/07/19 09:04:05;;;;;;;5.28;2.83;;;29.20;36.20;;;;;;5068854;28;45275;-74
2022/07/19 09:06:37;;;;;;;2.72;2.15;;;29.30;35.90;;;;;;5069280;28;45329;-74
2022/07/19 09:09:04;;;;;;;4.20;2.40;;;29.30;35.50;;;;;;5066380;28;45350;-74
2022/07/19 09:11:35;;;;;;;2.60;2.40;;;29.40;35.30;;;;;;5069065;28;45317;-74
2022/07/19 09:14:06;;;;;;;2.42;2.22;;;29.40;35.10;;;;;;5068679;28;45217;-76
2022/07/19 09:16:51;;;;;;;3.17;2.15;;;29.40;35.00;;;;;;5066503;28;45356;-74
2022/07/19 09:19:20;;;;;;;3.15;2.60;;;29.50;34.90;;;;;;5069071;28;45287;-74
2022/07/19 09:21:58;;;;;;;3.97;2.65;;;29.60;35.10;;;;;;5068557;28;45616;-74
2022/07/19 09:24:25;;;;;;;3.85;2.60;;;29.60;35.20;;;;;;5067979;28;45337;-73
2022/07/19 09:26:59;;;;;;;6.43;2.33;;;29.60;35.20;;;;;;5068632;28;45229;-74
2022/07/19 09:29:27;;;;;;;3.15;2.42;;;29.70;35.30;;;;;;5068749;28;45271;-74
2022/07/19 09:32:08;;;;;;;2.90;2.15;;;29.70;34.90;;;;;;5068489;28;45534;-73
2022/07/19 09:34:38;;;;;;;5.68;2.50;;;29.80;34.80;;;;;;5067603;28;45589;-73
2022/07/19 09:37:09;;;;;;;4.15;2.50;;;29.80;34.50;;;;;;5068395;28;45323;-73
2022/07/19 09:39:36;;;;;;;3.47;2.10;;;29.90;34.40;;;;;;5068600;28;45321;-73
2022/07/19 09:42:03;;;;;;;2.63;1.98;;;29.90;34.20;;;;;;5068173;28;46647;-74
2022/07/19 09:44:30;;;;;;;4.10;2.35;;;30.00;34.00;;;;;;5065343;28;45207;-74
2022/07/19 09:46:57;;;;;;;2.55;2.28;;;30.00;33.50;;;;;;5068296;27;45212;-74
2022/07/19 09:49:24;;;;;;;2.80;2.40;;;30.10;33.40;;;;;;5065545;28;45245;-75
2022/07/19 09:51:53;;;;;;;4.00;2.20;;;30.10;33.20;;;;;;5067890;28;46491;-73
2022/07/19 09:54:21;;;;;;;2.50;2.17;;;30.10;33.00;;;;;;5065072;28;45426;-74
2022/07/19 09:56:50;;;;;;;3.50;2.60;;;30.20;33.10;;;;;;5067883;28;45238;-74
2022/07/19 09:59:18;;;;;;;2.50;2.28;;;30.20;33.00;;;;;;5068421;28;45341;-73
2022/07/19 10:01:45;;;;;;;4.15;2.20;;;30.30;32.90;;;;;;5067107;28;47548;-73
2022/07/19 10:04:12;;;;;;;2.55;2.35;;;30.30;32.80;;;;;;5067844;28;45289;-74
2022/07/19 10:06:40;;;;;;;3.53;2.50;;;30.40;32.60;;;;;;5067521;28;45498;-73
2022/07/19 10:09:12;;;;;;;5.45;2.40;;;30.40;32.60;;;;;;5066768;28;45441;-74
2022/07/19 10:11:39;;;;;;;3.63;2.10;;;30.40;32.60;;;;;;5066930;28;46374;-73
2022/07/19 10:14:06;;;;;;;3.22;2.10;;;30.50;32.50;;;;;;5067246;28;45297;-73
2022/07/19 10:16:40;;;;;;;2.60;2.40;;;30.50;32.50;;;;;;5067283;28;45378;-74
2022/07/19 10:19:09;;;;;;;2.22;2.10;;;30.60;32.10;;;;;;5067732;28;45283;-73
2022/07/19 10:21:39;;;;;;;2.53;2.00;;;30.60;31.90;;;;;;5067224;28;46519;-73
2022/07/19 10:24:07;;;;;;;3.67;2.28;;;30.70;31.60;;;;;;5067427;28;45342;-73
2022/07/19 10:26:35;;;;;;;2.47;2.22;;;30.70;31.50;;;;;;5067555;28;45273;-74
2022/07/19 10:29:09;;;;;;;2.80;2.08;;;30.80;31.40;;;;;;5067988;28;45246;-74
2022/07/19 10:31:36;;;;;;;4.13;2.15;;;30.80;31.50;;;;;;5067612;28;47624;-74
2022/07/19 10:34:04;;;;;;;3.60;2.35;;;30.90;31.60;;;;;;5067680;28;45520;-74
2022/07/19 10:36:35;;;;;;;2.35;2.10;;;30.90;31.70;;;;;;5067722;28;45291;-74
2022/07/19 10:39:23;;;;;;;3.25;2.13;;;31.00;31.70;;;;;;5067692;28;45372;-74
2022/07/19 10:42:23;;;;;;;3.13;2.30;;;31.00;32.00;;;;;;5067395;28;47318;-74
2022/07/19 10:45:09;;;;;;;3.30;2.33;;;31.10;32.20;;;;;;5004905;28;45349;-74
2022/07/19 10:48:12;;;;;;;3.70;2.00;;;31.20;32.20;;;;;;5004979;28;45395;-74
2022/07/19 10:50:53;;;;;;;3.50;2.30;;;31.30;32.20;;;;;;5055626;28;45452;-74
2022/07/19 10:53:54;;;;;;;4.40;2.22;;;31.30;32.10;;;;;;5066638;28;45439;-74
2022/07/19 10:56:23;;;;;;;2.58;2.20;;;31.40;32.00;;;;;;5067211;28;45341;-74
2022/07/19 10:58:51;;;;;;;2.35;2.15;;;31.50;31.80;;;;;;5068010;28;45378;-75
2022/07/19 11:01:19;;;;;;;2.85;2.33;;;31.50;32.00;;;;;;5067592;28;45365;-75
2022/07/19 11:03:47;;;;;;;3.50;2.60;;;31.60;32.10;;;;;;5067238;28;45479;-76
2022/07/19 11:06:19;;;;;;;3.80;2.33;;;31.60;32.10;;;;;;5065971;28;45206;-76
2022/07/19 11:08:46;;;;;;;6.20;2.70;;;31.70;31.90;;;;;;5067075;28;45185;-76
2022/07/19 11:11:14;;;;;;;3.33;2.30;;;31.80;31.50;;;;;;5069772;28;45081;-76
2022/07/19 11:13:45;;;;;;;3.38;2.35;;;31.80;31.50;;;;;;5068925;28;46470;-76
2022/07/19 11:16:12;;;;;;;5.10;2.30;;;31.90;31.30;;;;;;5067738;28;45193;-76
2022/07/19 11:18:39;;;;;;;3.40;2.15;;;31.90;30.70;;;;;;5067119;28;45224;-77
2022/07/19 11:21:06;;;;;;;3.47;2.22;;;32.00;30.60;;;;;;5067470;28;45311;-76
2022/07/19 11:23:34;;;;;;;2.53;2.33;;;32.00;30.40;;;;;;5066930;28;46347;-77
2022/07/19 11:26:08;;;;;;;2.40;2.20;;;32.10;30.60;;;;;;5067176;28;45218;-77
2022/07/19 11:28:35;;;;;;;2.78;2.10;;;32.20;30.80;;;;;;5066929;28;45223;-77
2022/07/19 11:31:13;;;;;;;6.13;2.17;;;32.30;30.00;;;;;;5067284;28;45226;-77
2022/07/19 11:33:40;;;;;;;3.03;2.22;;;32.40;30.00;;;;;;5066997;28;45452;-76
2022/07/19 11:36:07;;;;;;;4.25;2.40;;;32.40;29.70;;;;;;5066247;28;45383;-76
2022/07/19 11:38:36;;;;;;;3.75;2.72;;;32.50;29.40;;;;;;5067091;28;45318;-76
2022/07/19 11:41:02;;;;;;;4.10;2.45;;;32.60;29.50;;;;;;5067180;28;45388;-76
2022/07/19 11:43:30;;;;;;;2.42;2.10;;;32.60;29.30;;;;;;5066457;28;45239;-76
2022/07/19 11:45:57;;;;;;;5.63;2.20;;;32.70;29.00;;;;;;5066870;28;45286;-76
2022/07/19 11:48:31;;;;;;;4.07;1.95;;;32.80;29.10;;;;;;5066840;28;45323;-76
2022/07/19 11:51:02;;;;;;;3.33;2.38;;;32.90;29.40;;;;;;5066978;28;45451;-75
2022/07/19 11:53:28;;;;;;;4.43;2.35;;;32.90;29.30;;;;;;5066565;28;46322;-76
2022/07/19 11:55:56;;;;;;;3.40;2.40;;;33.00;29.10;;;;;;5066164;28;45291;-75
2022/07/19 11:58:23;;;;;;;3.13;2.50;;;33.10;29.30;;;;;;5066825;28;45385;-75
2022/07/19 12:00:49;;;;;;;3.08;2.50;;;33.20;29.20;;;;;;5066832;28;45525;-75
2022/07/19 12:03:17;;;;;;;3.13;2.63;;;33.20;29.20;;;;;;5065808;28;45225;-76
2022/07/19 12:05:57;;;;;;;4.57;2.30;;;33.30;29.40;;;;;;5065834;28;45207;-75
2022/07/19 12:08:33;;;;;;;3.70;2.42;;;33.40;29.50;;;;;;5065969;28;45275;-76
2022/07/19 12:11:00;;;;;;;2.65;2.20;;;33.50;29.90;;;;;;5066097;28;45341;-75
2022/07/19 12:13:31;;;;;;;2.63;2.42;;;33.60;29.20;;;;;;5066125;28;45202;-75
2022/07/19 12:16:00;;;;;;;5.10;2.50;;;33.70;28.90;;;;;;5066213;28;45310;-75
2022/07/19 12:18:48;;;;;;;3.45;2.35;;;33.70;28.40;;;;;;5066149;28;45285;-75
2022/07/19 12:21:24;;;;;;;3.95;2.33;;;33.80;28.60;;;;;;5063285;28;45151;-76
2022/07/19 12:24:14;;;;;;;6.18;2.28;;;33.90;28.50;;;;;;5065064;28;46437;-76
2022/07/19 12:26:43;;;;;;;5.97;2.28;;;33.90;28.70;;;;;;5065826;28;45352;-76
2022/07/19 12:29:23;;;;;;;2.78;2.10;;;34.00;28.80;;;;;;5065894;28;45323;-76
2022/07/19 12:31:51;;;;;;;3.13;2.03;;;34.10;28.80;;;;;;5066713;28;45415;-76
2022/07/19 12:34:18;;;;;;;4.22;2.40;;;34.10;28.80;;;;;;5068645;28;46431;-77
2022/07/19 12:36:46;;;;;;;2.88;2.17;;;34.30;29.10;;;;;;5069440;28;45146;-76
2022/07/19 12:39:25;;;;;;;5.80;2.63;;;34.30;29.00;;;;;;5069659;28;45329;-76
2022/07/19 12:41:56;;;;;;;8.68;2.53;;;34.40;28.80;;;;;;5069843;28;45198;-76
2022/07/19 12:44:23;;;;;;;3.63;2.17;;;34.50;28.70;;;;;;5068429;28;46454;-76
2022/07/19 12:46:49;;;;;;;2.35;2.15;;;34.50;28.60;;;;;;5068404;28;45479;-76
2022/07/19 12:49:16;;;;;;;4.65;2.22;;;34.60;28.00;;;;;;5069113;28;45280;-76
2022/07/19 12:51:43;;;;;;;5.50;2.35;;;34.60;28.00;;;;;;5069509;28;45351;-76
2022/07/19 12:54:11;;;;;;;4.22;2.13;;;34.70;28.00;;;;;;5068573;28;45733;-76
2022/07/19 12:56:38;;;;;;;3.88;2.28;;;34.80;27.90;;;;;;5069369;28;45522;-76